Airfield :
LOGIN :

Register | Disclaimer

   EN    FR    IT 

 










Legend :    VFR   Marginal VFR   IFR   Intensive IFR   Very Intensive IFR
Visi :
Ceiling :
>= 8 km
>= 3000ft
5 to 8 km
1000 to 3000 ft
1500m to 5 km
500 to 1000 ft
800 to 1500m
200 to 500 ft
< 800m
< 200 ft
Symbols :   Thunderstorms  Fog  Heavy snow  Heavy precipitations  Wind > 20 kt
SIGMETs :     Misc.  Thunderstorms  Icing  Turbulence  Mountain Waves  Volcanic Ashes







- Airport Elevation : 257 ft
- IATA code : MAN
- Download approach charts


EGCC - Manchester

CURRENT METAR :
  • 211220Z AUTO 12005KT 070V170 9999 BKN020 04/M01 Q1012 TEMPO SHRA BKN012

EXPIRED METARs :
  • 211150Z AUTO 13007KT 020V170 9999 OVC018 04/M01 Q1012 TEMPO SHRA
  • 211120Z AUTO 12006KT 040V180 9999 BKN016 OVC022 03/M01 Q1011 NOSIG
  • 211050Z AUTO 14008KT 090V190 9999 OVC016 03/M01 Q1011 NOSIG
  • 211020Z AUTO VRB06KT 9999 BKN019 04/M00 Q1010 BECMG 12010KT
  • 210950Z AUTO VRB05KT 9999 SCT021/// BKN026/// BKN030/// //////TCU 04/M00 Q1010 BECMG 12010KT

TAF TAF EGCC
Valid from the 21 at 12:00 until the 22 at 18:00 UTC


211107Z 2112/2218 12009KT 9999 SCT020
PROB30
TEMPO 2112/2115 6000 SHRA BKN012
PROB40 2120/2124 7000
BECMG 2200/2203 7000
TEMPO 2200/2209 3000 BR
PROB30
TEMPO 2203/2208 0300 FZFG VV///
BECMG 2206/2209 9999
TEMPO 2209/2214 6000 RA BKN010
ATIS : +44 161 499 2324
No reported NOTAMs for that airfield.



MET'MAP, your aeronautical weather chart ! - Copyright ORBIFLY December 2007 - Disclaimer

ORBIFLY MET'MAP TEAM :

Programming & Development : Alexandra Zaïnal
Concept & Development : Baudouin d'Aumeries
Co-Development & Prog : Marc-Olivier Méhu
Technical & hardware support : Manuel Goepfert

Contact : metmap@orbifly.com




SOURCES & CREDITS :

   NOAA